sensor_id;sensor_type;location;lat;lon;timestamp;temperature;humidity
20803;DHT22;10562;-33.856;151.182;2024-01-07T00:02:11;28.30;99.90
20803;DHT22;10562;-33.856;151.182;2024-01-07T00:04:42;28.60;99.90
20803;DHT22;10562;-33.856;151.182;2024-01-07T00:07:12;28.90;99.90
20803;DHT22;10562;-33.856;151.182;2024-01-07T00:09:46;29.20;99.90
20803;DHT22;10562;-33.856;151.182;2024-01-07T00:12:17;29.30;99.90
20803;DHT22;10562;-33.856;151.182;2024-01-07T00:14:47;29.40;99.90
20803;DHT22;10562;-33.856;151.182;2024-01-07T00:17:20;29.60;99.90
20803;DHT22;10562;-33.856;151.182;2024-01-07T00:19:51;30.00;99.90
20803;DHT22;10562;-33.856;151.182;2024-01-07T00:22:22;30.20;99.90
20803;DHT22;10562;-33.856;151.182;2024-01-07T00:24:59;30.40;99.90
20803;DHT22;10562;-33.856;151.182;2024-01-07T00:27:30;30.80;99.90
20803;DHT22;10562;-33.856;151.182;2024-01-07T00:30:08;31.00;99.90
20803;DHT22;10562;-33.856;151.182;2024-01-07T00:32:39;31.00;99.90
20803;DHT22;10562;-33.856;151.182;2024-01-07T00:35:11;31.10;99.90
20803;DHT22;10562;-33.856;151.182;2024-01-07T00:37:42;31.00;99.90
20803;DHT22;10562;-33.856;151.182;2024-01-07T00:40:15;30.80;99.90
20803;DHT22;10562;-33.856;151.182;2024-01-07T00:42:46;30.80;99.90
20803;DHT22;10562;-33.856;151.182;2024-01-07T00:45:17;31.00;99.90
20803;DHT22;10562;-33.856;151.182;2024-01-07T00:47:49;31.00;99.90
20803;DHT22;10562;-33.856;151.182;2024-01-07T00:50:22;31.10;99.90
20803;DHT22;10562;-33.856;151.182;2024-01-07T00:52:53;31.10;99.90
20803;DHT22;10562;-33.856;151.182;2024-01-07T00:55:26;31.20;99.90
20803;DHT22;10562;-33.856;151.182;2024-01-07T00:57:58;30.90;99.90
20803;DHT22;10562;-33.856;151.182;2024-01-07T01:00:28;30.50;99.90
20803;DHT22;10562;-33.856;151.182;2024-01-07T01:02:59;30.40;99.90
20803;DHT22;10562;-33.856;151.182;2024-01-07T01:05:30;30.40;99.90
20803;DHT22;10562;-33.856;151.182;2024-01-07T01:08:00;30.50;99.90
20803;DHT22;10562;-33.856;151.182;2024-01-07T01:10:33;30.40;99.90
20803;DHT22;10562;-33.856;151.182;2024-01-07T01:13:04;30.70;99.90
20803;DHT22;10562;-33.856;151.182;2024-01-07T01:15:36;30.50;99.90
20803;DHT22;10562;-33.856;151.182;2024-01-07T01:18:07;30.20;99.90
20803;DHT22;10562;-33.856;151.182;2024-01-07T01:20:38;30.10;99.90
20803;DHT22;10562;-33.856;151.182;2024-01-07T01:23:08;29.90;99.90
20803;DHT22;10562;-33.856;151.182;2024-01-07T01:25:42;29.80;99.90
20803;DHT22;10562;-33.856;151.182;2024-01-07T01:28:14;29.90;99.90
20803;DHT22;10562;-33.856;151.182;2024-01-07T01:30:45;30.10;99.90
20803;DHT22;10562;-33.856;151.182;2024-01-07T01:33:15;30.30;99.90
20803;DHT22;10562;-33.856;151.182;2024-01-07T01:35:48;30.50;99.90
20803;DHT22;10562;-33.856;151.182;2024-01-07T01:38:19;30.70;99.90
20803;DHT22;10562;-33.856;151.182;2024-01-07T01:40:54;30.90;99.90
20803;DHT22;10562;-33.856;151.182;2024-01-07T01:43:25;30.80;99.90
20803;DHT22;10562;-33.856;151.182;2024-01-07T01:45:57;30.90;99.90
20803;DHT22;10562;-33.856;151.182;2024-01-07T01:48:28;31.10;99.90
20803;DHT22;10562;-33.856;151.182;2024-01-07T01:50:59;31.10;99.90
20803;DHT22;10562;-33.856;151.182;2024-01-07T01:53:30;30.90;99.90
20803;DHT22;10562;-33.856;151.182;2024-01-07T01:56:03;30.60;99.90
20803;DHT22;10562;-33.856;151.182;2024-01-07T01:58:34;30.10;99.90
20803;DHT22;10562;-33.856;151.182;2024-01-07T02:01:05;29.90;99.90
20803;DHT22;10562;-33.856;151.182;2024-01-07T02:03:36;29.70;99.90
20803;DHT22;10562;-33.856;151.182;2024-01-07T02:06:08;29.60;99.90
20803;DHT22;10562;-33.856;151.182;2024-01-07T02:08:39;29.60;99.90
20803;DHT22;10562;-33.856;151.182;2024-01-07T02:11:22;29.80;99.90
20803;DHT22;10562;-33.856;151.182;2024-01-07T02:13:53;29.90;99.90
20803;DHT22;10562;-33.856;151.182;2024-01-07T02:16:23;30.10;99.90
20803;DHT22;10562;-33.856;151.182;2024-01-07T02:18:54;30.00;99.90
20803;DHT22;10562;-33.856;151.182;2024-01-07T02:21:30;30.00;99.90
20803;DHT22;10562;-33.856;151.182;2024-01-07T02:24:07;30.30;99.90
20803;DHT22;10562;-33.856;151.182;2024-01-07T02:26:45;30.50;99.90
20803;DHT22;10562;-33.856;151.182;2024-01-07T02:29:17;30.50;99.90
20803;DHT22;10562;-33.856;151.182;2024-01-07T02:31:49;30.50;99.90
20803;DHT22;10562;-33.856;151.182;2024-01-07T02:34:22;30.60;99.90
20803;DHT22;10562;-33.856;151.182;2024-01-07T02:36:53;30.70;99.90
20803;DHT22;10562;-33.856;151.182;2024-01-07T02:39:26;30.80;99.90
20803;DHT22;10562;-33.856;151.182;2024-01-07T02:42:03;30.80;99.90
20803;DHT22;10562;-33.856;151.182;2024-01-07T02:44:34;31.10;99.90
20803;DHT22;10562;-33.856;151.182;2024-01-07T02:47:10;31.30;99.90
20803;DHT22;10562;-33.856;151.182;2024-01-07T02:49:41;31.20;99.90
20803;DHT22;10562;-33.856;151.182;2024-01-07T02:52:14;31.20;99.90
20803;DHT22;10562;-33.856;151.182;2024-01-07T02:54:48;30.90;99.90
20803;DHT22;10562;-33.856;151.182;2024-01-07T02:57:18;30.70;99.90
20803;DHT22;10562;-33.856;151.182;2024-01-07T02:59:50;30.50;99.90
20803;DHT22;10562;-33.856;151.182;2024-01-07T03:02:21;30.40;99.90
20803;DHT22;10562;-33.856;151.182;2024-01-07T03:04:52;30.30;99.90
20803;DHT22;10562;-33.856;151.182;2024-01-07T03:07:22;30.30;99.90
20803;DHT22;10562;-33.856;151.182;2024-01-07T03:09:55;30.20;99.90
20803;DHT22;10562;-33.856;151.182;2024-01-07T03:12:27;30.20;99.90
20803;DHT22;10562;-33.856;151.182;2024-01-07T03:14:58;30.20;99.90
20803;DHT22;10562;-33.856;151.182;2024-01-07T03:17:28;30.40;99.90
20803;DHT22;10562;-33.856;151.182;2024-01-07T03:19:59;30.50;99.90
20803;DHT22;10562;-33.856;151.182;2024-01-07T03:22:30;30.70;99.90
20803;DHT22;10562;-33.856;151.182;2024-01-07T03:25:03;31.00;99.90
20803;DHT22;10562;-33.856;151.182;2024-01-07T03:27:34;31.20;99.90
20803;DHT22;10562;-33.856;151.182;2024-01-07T03:30:05;31.60;99.90
20803;DHT22;10562;-33.856;151.182;2024-01-07T03:32:37;31.80;99.90
20803;DHT22;10562;-33.856;151.182;2024-01-07T03:35:08;32.00;99.90
20803;DHT22;10562;-33.856;151.182;2024-01-07T03:37:39;31.80;99.90
20803;DHT22;10562;-33.856;151.182;2024-01-07T03:40:15;31.50;99.90
20803;DHT22;10562;-33.856;151.182;2024-01-07T03:42:46;31.70;99.90
20803;DHT22;10562;-33.856;151.182;2024-01-07T03:45:17;31.60;99.90
20803;DHT22;10562;-33.856;151.182;2024-01-07T03:47:49;31.50;99.90
20803;DHT22;10562;-33.856;151.182;2024-01-07T03:50:20;31.60;99.90
20803;DHT22;10562;-33.856;151.182;2024-01-07T03:52:50;31.60;99.90
20803;DHT22;10562;-33.856;151.182;2024-01-07T03:55:23;31.40;99.90
20803;DHT22;10562;-33.856;151.182;2024-01-07T03:57:54;31.30;99.90
20803;DHT22;10562;-33.856;151.182;2024-01-07T04:00:25;31.30;99.90
20803;DHT22;10562;-33.856;151.182;2024-01-07T04:02:56;31.40;99.90
20803;DHT22;10562;-33.856;151.182;2024-01-07T04:05:26;31.50;99.90
20803;DHT22;10562;-33.856;151.182;2024-01-07T04:07:57;31.40;99.90
20803;DHT22;10562;-33.856;151.182;2024-01-07T04:10:30;31.60;99.90
20803;DHT22;10562;-33.856;151.182;2024-01-07T04:13:02;32.00;99.90
20803;DHT22;10562;-33.856;151.182;2024-01-07T04:15:33;32.00;99.90
20803;DHT22;10562;-33.856;151.182;2024-01-07T04:18:04;31.50;99.90
20803;DHT22;10562;-33.856;151.182;2024-01-07T04:20:35;31.40;99.90
20803;DHT22;10562;-33.856;151.182;2024-01-07T04:23:06;31.50;99.90
20803;DHT22;10562;-33.856;151.182;2024-01-07T04:25:38;31.50;99.90
20803;DHT22;10562;-33.856;151.182;2024-01-07T04:28:10;31.50;99.90
20803;DHT22;10562;-33.856;151.182;2024-01-07T04:30:40;31.60;99.90
20803;DHT22;10562;-33.856;151.182;2024-01-07T04:33:11;31.70;99.90
20803;DHT22;10562;-33.856;151.182;2024-01-07T04:35:42;31.80;99.90
20803;DHT22;10562;-33.856;151.182;2024-01-07T04:38:13;31.40;99.90
20803;DHT22;10562;-33.856;151.182;2024-01-07T04:40:46;31.30;99.90
20803;DHT22;10562;-33.856;151.182;2024-01-07T04:43:17;31.00;99.90
20803;DHT22;10562;-33.856;151.182;2024-01-07T04:45:47;31.00;99.90
20803;DHT22;10562;-33.856;151.182;2024-01-07T04:48:18;31.00;99.90
20803;DHT22;10562;-33.856;151.182;2024-01-07T04:50:49;31.00;99.90
20803;DHT22;10562;-33.856;151.182;2024-01-07T04:53:20;31.00;99.90
20803;DHT22;10562;-33.856;151.182;2024-01-07T04:55:52;30.80;99.90
20803;DHT22;10562;-33.856;151.182;2024-01-07T04:58:23;31.10;99.90
20803;DHT22;10562;-33.856;151.182;2024-01-07T05:00:54;31.00;99.90
20803;DHT22;10562;-33.856;151.182;2024-01-07T05:03:24;31.00;99.90
20803;DHT22;10562;-33.856;151.182;2024-01-07T05:05:55;31.10;99.90
20803;DHT22;10562;-33.856;151.182;2024-01-07T05:08:29;31.00;99.90
20803;DHT22;10562;-33.856;151.182;2024-01-07T05:11:03;30.60;99.90
20803;DHT22;10562;-33.856;151.182;2024-01-07T05:13:36;30.20;99.90
20803;DHT22;10562;-33.856;151.182;2024-01-07T05:16:08;30.10;99.90
20803;DHT22;10562;-33.856;151.182;2024-01-07T05:18:39;30.40;99.90
20803;DHT22;10562;-33.856;151.182;2024-01-07T05:21:10;30.60;99.90
20803;DHT22;10562;-33.856;151.182;2024-01-07T05:23:41;31.00;99.90
20803;DHT22;10562;-33.856;151.182;2024-01-07T05:26:14;31.40;99.90
20803;DHT22;10562;-33.856;151.182;2024-01-07T05:28:44;31.30;99.90
20803;DHT22;10562;-33.856;151.182;2024-01-07T05:31:18;31.10;99.90
20803;DHT22;10562;-33.856;151.182;2024-01-07T05:33:49;31.50;99.90
20803;DHT22;10562;-33.856;151.182;2024-01-07T05:36:20;32.10;99.90
20803;DHT22;10562;-33.856;151.182;2024-01-07T05:38:51;32.20;99.90
20803;DHT22;10562;-33.856;151.182;2024-01-07T05:41:23;32.20;99.90
20803;DHT22;10562;-33.856;151.182;2024-01-07T05:43:54;31.80;99.90
20803;DHT22;10562;-33.856;151.182;2024-01-07T05:46:25;31.40;99.90
20803;DHT22;10562;-33.856;151.182;2024-01-07T05:48:56;31.00;99.90
20803;DHT22;10562;-33.856;151.182;2024-01-07T05:51:30;30.80;99.90
20803;DHT22;10562;-33.856;151.182;2024-01-07T05:54:01;31.00;99.90
20803;DHT22;10562;-33.856;151.182;2024-01-07T05:56:38;31.20;99.90
20803;DHT22;10562;-33.856;151.182;2024-01-07T05:59:09;31.10;99.90
20803;DHT22;10562;-33.856;151.182;2024-01-07T06:01:39;30.90;99.90
20803;DHT22;10562;-33.856;151.182;2024-01-07T06:04:10;30.40;99.90
20803;DHT22;10562;-33.856;151.182;2024-01-07T06:06:41;29.90;99.90
20803;DHT22;10562;-33.856;151.182;2024-01-07T06:09:12;29.40;99.90
20803;DHT22;10562;-33.856;151.182;2024-01-07T06:11:44;28.80;99.90
20803;DHT22;10562;-33.856;151.182;2024-01-07T06:14:18;28.40;99.90
20803;DHT22;10562;-33.856;151.182;2024-01-07T06:16:48;28.10;99.90
20803;DHT22;10562;-33.856;151.182;2024-01-07T06:19:20;27.90;99.90
20803;DHT22;10562;-33.856;151.182;2024-01-07T06:21:51;27.60;99.90
20803;DHT22;10562;-33.856;151.182;2024-01-07T06:27:47;27.50;99.90
20803;DHT22;10562;-33.856;151.182;2024-01-07T06:30:18;27.20;99.90
20803;DHT22;10562;-33.856;151.182;2024-01-07T06:32:49;27.00;99.90
20803;DHT22;10562;-33.856;151.182;2024-01-07T06:35:19;26.90;99.90
20803;DHT22;10562;-33.856;151.182;2024-01-07T06:37:50;26.90;99.90
20803;DHT22;10562;-33.856;151.182;2024-01-07T06:40:21;26.70;99.90
20803;DHT22;10562;-33.856;151.182;2024-01-07T06:42:55;26.70;99.90
20803;DHT22;10562;-33.856;151.182;2024-01-07T06:45:26;26.70;99.90
20803;DHT22;10562;-33.856;151.182;2024-01-07T06:47:56;26.60;99.90
20803;DHT22;10562;-33.856;151.182;2024-01-07T06:50:29;26.50;99.90
20803;DHT22;10562;-33.856;151.182;2024-01-07T06:53:00;26.50;99.90
20803;DHT22;10562;-33.856;151.182;2024-01-07T06:55:30;26.40;99.90
20803;DHT22;10562;-33.856;151.182;2024-01-07T06:58:03;26.30;99.90
20803;DHT22;10562;-33.856;151.182;2024-01-07T07:00:34;26.30;99.90
20803;DHT22;10562;-33.856;151.182;2024-01-07T07:03:05;26.30;99.90
20803;DHT22;10562;-33.856;151.182;2024-01-07T07:05:36;26.20;99.90
20803;DHT22;10562;-33.856;151.182;2024-01-07T07:08:06;26.20;99.90
20803;DHT22;10562;-33.856;151.182;2024-01-07T07:10:36;26.10;99.90
20803;DHT22;10562;-33.856;151.182;2024-01-07T07:13:10;26.10;99.90
20803;DHT22;10562;-33.856;151.182;2024-01-07T07:15:42;26.10;99.90
20803;DHT22;10562;-33.856;151.182;2024-01-07T07:18:12;26.00;99.90
20803;DHT22;10562;-33.856;151.182;2024-01-07T07:20:45;26.00;99.90
20803;DHT22;10562;-33.856;151.182;2024-01-07T07:23:16;26.00;99.90
20803;DHT22;10562;-33.856;151.182;2024-01-07T07:25:48;26.00;99.90
20803;DHT22;10562;-33.856;151.182;2024-01-07T07:28:21;26.00;99.90
20803;DHT22;10562;-33.856;151.182;2024-01-07T07:30:52;26.00;99.90
20803;DHT22;10562;-33.856;151.182;2024-01-07T07:33:23;25.90;99.90
20803;DHT22;10562;-33.856;151.182;2024-01-07T07:35:54;25.80;99.90
20803;DHT22;10562;-33.856;151.182;2024-01-07T07:38:25;25.80;99.90
20803;DHT22;10562;-33.856;151.182;2024-01-07T07:41:01;25.70;99.90
20803;DHT22;10562;-33.856;151.182;2024-01-07T07:43:34;25.60;99.90
20803;DHT22;10562;-33.856;151.182;2024-01-07T07:46:05;25.60;99.90
20803;DHT22;10562;-33.856;151.182;2024-01-07T07:48:36;25.50;99.90
20803;DHT22;10562;-33.856;151.182;2024-01-07T07:51:06;25.40;99.90
20803;DHT22;10562;-33.856;151.182;2024-01-07T07:53:39;25.40;99.90
20803;DHT22;10562;-33.856;151.182;2024-01-07T07:56:10;25.30;99.90
20803;DHT22;10562;-33.856;151.182;2024-01-07T07:58:43;25.30;99.90
20803;DHT22;10562;-33.856;151.182;2024-01-07T08:01:13;25.30;99.90
20803;DHT22;10562;-33.856;151.182;2024-01-07T08:03:44;25.30;99.90
20803;DHT22;10562;-33.856;151.182;2024-01-07T08:06:15;25.20;99.90
20803;DHT22;10562;-33.856;151.182;2024-01-07T08:08:46;25.20;99.90
20803;DHT22;10562;-33.856;151.182;2024-01-07T08:11:16;25.20;99.90
20803;DHT22;10562;-33.856;151.182;2024-01-07T08:13:49;25.10;99.90
20803;DHT22;10562;-33.856;151.182;2024-01-07T08:16:20;25.10;99.90
20803;DHT22;10562;-33.856;151.182;2024-01-07T08:18:51;25.10;99.90
20803;DHT22;10562;-33.856;151.182;2024-01-07T08:21:24;25.00;99.90
20803;DHT22;10562;-33.856;151.182;2024-01-07T08:23:55;24.90;99.90
20803;DHT22;10562;-33.856;151.182;2024-01-07T08:26:26;24.90;99.90
20803;DHT22;10562;-33.856;151.182;2024-01-07T08:29:01;24.90;99.90
20803;DHT22;10562;-33.856;151.182;2024-01-07T08:31:32;24.80;99.90
20803;DHT22;10562;-33.856;151.182;2024-01-07T08:34:03;24.70;99.90
20803;DHT22;10562;-33.856;151.182;2024-01-07T08:36:33;24.80;99.90
20803;DHT22;10562;-33.856;151.182;2024-01-07T08:39:06;24.70;99.90
20803;DHT22;10562;-33.856;151.182;2024-01-07T08:41:38;24.70;99.90
20803;DHT22;10562;-33.856;151.182;2024-01-07T08:44:11;24.60;99.90
20803;DHT22;10562;-33.856;151.182;2024-01-07T08:46:42;24.60;99.90
20803;DHT22;10562;-33.856;151.182;2024-01-07T08:49:13;24.50;99.90
20803;DHT22;10562;-33.856;151.182;2024-01-07T08:51:44;24.40;99.90
20803;DHT22;10562;-33.856;151.182;2024-01-07T08:54:15;24.40;99.90
20803;DHT22;10562;-33.856;151.182;2024-01-07T08:56:48;24.30;99.90
20803;DHT22;10562;-33.856;151.182;2024-01-07T08:59:19;24.30;99.90
20803;DHT22;10562;-33.856;151.182;2024-01-07T09:01:50;24.30;99.90
20803;DHT22;10562;-33.856;151.182;2024-01-07T09:04:21;24.30;99.90
20803;DHT22;10562;-33.856;151.182;2024-01-07T09:06:52;24.30;99.90
20803;DHT22;10562;-33.856;151.182;2024-01-07T09:09:26;24.20;99.90
20803;DHT22;10562;-33.856;151.182;2024-01-07T09:11:58;24.10;99.90
20803;DHT22;10562;-33.856;151.182;2024-01-07T09:14:31;24.20;99.90
20803;DHT22;10562;-33.856;151.182;2024-01-07T09:17:05;24.20;99.90
20803;DHT22;10562;-33.856;151.182;2024-01-07T09:19:35;24.20;99.90
20803;DHT22;10562;-33.856;151.182;2024-01-07T09:22:07;24.10;99.90
20803;DHT22;10562;-33.856;151.182;2024-01-07T09:24:38;24.10;99.90
20803;DHT22;10562;-33.856;151.182;2024-01-07T09:27:08;24.10;99.90
20803;DHT22;10562;-33.856;151.182;2024-01-07T09:29:41;24.10;99.90
20803;DHT22;10562;-33.856;151.182;2024-01-07T09:32:12;24.00;99.90
20803;DHT22;10562;-33.856;151.182;2024-01-07T09:34:42;24.00;99.90
20803;DHT22;10562;-33.856;151.182;2024-01-07T09:37:15;24.00;99.90
20803;DHT22;10562;-33.856;151.182;2024-01-07T09:39:45;24.00;99.90
20803;DHT22;10562;-33.856;151.182;2024-01-07T09:42:17;23.90;99.90
20803;DHT22;10562;-33.856;151.182;2024-01-07T09:44:51;24.00;99.90
20803;DHT22;10562;-33.856;151.182;2024-01-07T09:47:23;24.00;99.90
20803;DHT22;10562;-33.856;151.182;2024-01-07T09:49:54;24.00;99.90
20803;DHT22;10562;-33.856;151.182;2024-01-07T09:52:26;23.90;99.90
20803;DHT22;10562;-33.856;151.182;2024-01-07T09:55:03;23.90;99.90
20803;DHT22;10562;-33.856;151.182;2024-01-07T09:57:38;23.90;99.90
20803;DHT22;10562;-33.856;151.182;2024-01-07T10:00:14;23.90;99.90
20803;DHT22;10562;-33.856;151.182;2024-01-07T10:02:45;23.90;99.90
20803;DHT22;10562;-33.856;151.182;2024-01-07T10:05:15;23.80;99.90
20803;DHT22;10562;-33.856;151.182;2024-01-07T10:07:46;23.80;99.90
20803;DHT22;10562;-33.856;151.182;2024-01-07T10:10:17;23.80;99.90
20803;DHT22;10562;-33.856;151.182;2024-01-07T10:12:51;23.80;99.90
20803;DHT22;10562;-33.856;151.182;2024-01-07T10:15:26;23.80;99.90
20803;DHT22;10562;-33.856;151.182;2024-01-07T10:18:01;23.80;99.90
20803;DHT22;10562;-33.856;151.182;2024-01-07T10:20:33;23.80;99.90
20803;DHT22;10562;-33.856;151.182;2024-01-07T10:23:04;23.70;99.90
20803;DHT22;10562;-33.856;151.182;2024-01-07T10:25:36;23.80;99.90
20803;DHT22;10562;-33.856;151.182;2024-01-07T10:28:07;23.80;99.90
20803;DHT22;10562;-33.856;151.182;2024-01-07T10:30:42;23.70;99.90
20803;DHT22;10562;-33.856;151.182;2024-01-07T10:33:19;23.70;99.90
20803;DHT22;10562;-33.856;151.182;2024-01-07T10:35:55;23.70;99.90
20803;DHT22;10562;-33.856;151.182;2024-01-07T10:38:27;23.70;99.90
20803;DHT22;10562;-33.856;151.182;2024-01-07T10:40:59;23.70;99.90
20803;DHT22;10562;-33.856;151.182;2024-01-07T10:43:30;23.70;99.90
20803;DHT22;10562;-33.856;151.182;2024-01-07T10:46:03;23.70;99.90
20803;DHT22;10562;-33.856;151.182;2024-01-07T10:48:39;23.70;99.90
20803;DHT22;10562;-33.856;151.182;2024-01-07T10:51:13;23.70;99.90
20803;DHT22;10562;-33.856;151.182;2024-01-07T10:53:46;23.70;99.90
20803;DHT22;10562;-33.856;151.182;2024-01-07T10:56:19;23.70;99.90
20803;DHT22;10562;-33.856;151.182;2024-01-07T10:58:53;23.70;99.90
20803;DHT22;10562;-33.856;151.182;2024-01-07T11:01:27;23.70;99.90
20803;DHT22;10562;-33.856;151.182;2024-01-07T11:04:01;23.70;99.90
20803;DHT22;10562;-33.856;151.182;2024-01-07T11:06:40;23.70;99.90
20803;DHT22;10562;-33.856;151.182;2024-01-07T11:09:19;23.70;99.90
20803;DHT22;10562;-33.856;151.182;2024-01-07T11:11:51;23.60;99.90
20803;DHT22;10562;-33.856;151.182;2024-01-07T11:14:41;23.60;99.90
20803;DHT22;10562;-33.856;151.182;2024-01-07T11:17:14;23.60;99.90
20803;DHT22;10562;-33.856;151.182;2024-01-07T11:20:06;23.60;99.90
20803;DHT22;10562;-33.856;151.182;2024-01-07T11:22:38;23.60;99.90
20803;DHT22;10562;-33.856;151.182;2024-01-07T11:25:30;23.60;99.90
20803;DHT22;10562;-33.856;151.182;2024-01-07T11:28:03;23.50;99.90
20803;DHT22;10562;-33.856;151.182;2024-01-07T11:30:39;23.50;99.90
20803;DHT22;10562;-33.856;151.182;2024-01-07T11:33:13;23.50;99.90
20803;DHT22;10562;-33.856;151.182;2024-01-07T11:35:56;23.50;99.90
20803;DHT22;10562;-33.856;151.182;2024-01-07T11:38:27;23.50;99.90
20803;DHT22;10562;-33.856;151.182;2024-01-07T11:41:01;23.50;99.90
20803;DHT22;10562;-33.856;151.182;2024-01-07T11:43:33;23.50;99.90
20803;DHT22;10562;-33.856;151.182;2024-01-07T11:46:04;23.50;99.90
20803;DHT22;10562;-33.856;151.182;2024-01-07T11:48:37;23.50;99.90
20803;DHT22;10562;-33.856;151.182;2024-01-07T11:51:07;23.40;99.90
20803;DHT22;10562;-33.856;151.182;2024-01-07T11:53:39;23.40;99.90
20803;DHT22;10562;-33.856;151.182;2024-01-07T11:56:10;23.40;99.90
20803;DHT22;10562;-33.856;151.182;2024-01-07T11:58:42;23.40;99.90
20803;DHT22;10562;-33.856;151.182;2024-01-07T12:01:14;23.40;99.90
20803;DHT22;10562;-33.856;151.182;2024-01-07T12:03:48;23.40;99.90
20803;DHT22;10562;-33.856;151.182;2024-01-07T12:06:18;23.40;99.90
20803;DHT22;10562;-33.856;151.182;2024-01-07T12:08:49;23.30;99.90
20803;DHT22;10562;-33.856;151.182;2024-01-07T12:11:20;23.30;99.90
20803;DHT22;10562;-33.856;151.182;2024-01-07T12:13:51;23.30;99.90
20803;DHT22;10562;-33.856;151.182;2024-01-07T12:16:22;23.40;99.90
20803;DHT22;10562;-33.856;151.182;2024-01-07T12:18:55;23.30;99.90
20803;DHT22;10562;-33.856;151.182;2024-01-07T12:21:26;23.30;99.90
20803;DHT22;10562;-33.856;151.182;2024-01-07T12:23:57;23.30;99.90
20803;DHT22;10562;-33.856;151.182;2024-01-07T12:26:29;23.30;99.90
20803;DHT22;10562;-33.856;151.182;2024-01-07T12:29:01;23.30;99.90
20803;DHT22;10562;-33.856;151.182;2024-01-07T12:31:34;23.20;99.90
20803;DHT22;10562;-33.856;151.182;2024-01-07T12:34:08;23.30;99.90
20803;DHT22;10562;-33.856;151.182;2024-01-07T12:36:39;23.20;99.90
20803;DHT22;10562;-33.856;151.182;2024-01-07T12:39:10;23.20;99.90
20803;DHT22;10562;-33.856;151.182;2024-01-07T12:41:41;23.20;99.90
20803;DHT22;10562;-33.856;151.182;2024-01-07T12:44:11;23.20;99.90
20803;DHT22;10562;-33.856;151.182;2024-01-07T12:46:42;23.10;99.90
20803;DHT22;10562;-33.856;151.182;2024-01-07T12:49:15;23.10;99.90
20803;DHT22;10562;-33.856;151.182;2024-01-07T12:51:46;23.10;99.90
20803;DHT22;10562;-33.856;151.182;2024-01-07T12:54:17;23.10;99.90
20803;DHT22;10562;-33.856;151.182;2024-01-07T12:56:48;23.10;99.90
20803;DHT22;10562;-33.856;151.182;2024-01-07T12:59:19;23.10;99.90
20803;DHT22;10562;-33.856;151.182;2024-01-07T13:01:50;23.10;99.90
20803;DHT22;10562;-33.856;151.182;2024-01-07T13:04:22;23.10;99.90
20803;DHT22;10562;-33.856;151.182;2024-01-07T13:06:53;23.10;99.90
20803;DHT22;10562;-33.856;151.182;2024-01-07T13:09:25;23.10;99.90
20803;DHT22;10562;-33.856;151.182;2024-01-07T13:11:55;23.10;99.90
20803;DHT22;10562;-33.856;151.182;2024-01-07T13:14:28;23.10;99.90
20803;DHT22;10562;-33.856;151.182;2024-01-07T13:16:59;23.00;99.90
20803;DHT22;10562;-33.856;151.182;2024-01-07T13:19:32;22.90;99.90
20803;DHT22;10562;-33.856;151.182;2024-01-07T13:22:03;22.90;99.90
20803;DHT22;10562;-33.856;151.182;2024-01-07T13:24:33;22.90;99.90
20803;DHT22;10562;-33.856;151.182;2024-01-07T13:27:04;22.80;99.90
20803;DHT22;10562;-33.856;151.182;2024-01-07T13:29:36;22.80;99.90
20803;DHT22;10562;-33.856;151.182;2024-01-07T13:32:07;22.80;99.90
20803;DHT22;10562;-33.856;151.182;2024-01-07T13:34:39;22.80;99.90
20803;DHT22;10562;-33.856;151.182;2024-01-07T13:37:11;22.70;99.90
20803;DHT22;10562;-33.856;151.182;2024-01-07T13:39:42;22.70;99.90
20803;DHT22;10562;-33.856;151.182;2024-01-07T13:42:12;22.60;99.90
20803;DHT22;10562;-33.856;151.182;2024-01-07T13:44:46;22.70;99.90
20803;DHT22;10562;-33.856;151.182;2024-01-07T13:47:17;22.70;99.90
20803;DHT22;10562;-33.856;151.182;2024-01-07T13:49:50;22.60;99.90
20803;DHT22;10562;-33.856;151.182;2024-01-07T13:52:20;22.60;99.90
20803;DHT22;10562;-33.856;151.182;2024-01-07T13:54:51;22.60;99.90
20803;DHT22;10562;-33.856;151.182;2024-01-07T13:57:22;22.50;99.90
20803;DHT22;10562;-33.856;151.182;2024-01-07T13:59:52;22.50;99.90
20803;DHT22;10562;-33.856;151.182;2024-01-07T14:02:23;22.40;99.90
20803;DHT22;10562;-33.856;151.182;2024-01-07T14:04:56;22.40;99.90
20803;DHT22;10562;-33.856;151.182;2024-01-07T14:07:26;22.40;99.90
20803;DHT22;10562;-33.856;151.182;2024-01-07T14:09:57;22.30;99.90
20803;DHT22;10562;-33.856;151.182;2024-01-07T14:12:30;22.30;99.90
20803;DHT22;10562;-33.856;151.182;2024-01-07T14:15:01;22.30;99.90
20803;DHT22;10562;-33.856;151.182;2024-01-07T14:17:35;22.20;99.90
20803;DHT22;10562;-33.856;151.182;2024-01-07T14:20:09;22.20;99.90
20803;DHT22;10562;-33.856;151.182;2024-01-07T14:22:40;22.20;99.90
20803;DHT22;10562;-33.856;151.182;2024-01-07T14:25:11;22.20;99.90
20803;DHT22;10562;-33.856;151.182;2024-01-07T14:27:42;22.10;99.90
20803;DHT22;10562;-33.856;151.182;2024-01-07T14:30:14;22.10;99.90
20803;DHT22;10562;-33.856;151.182;2024-01-07T14:32:45;22.10;99.90
20803;DHT22;10562;-33.856;151.182;2024-01-07T14:35:17;22.10;99.90
20803;DHT22;10562;-33.856;151.182;2024-01-07T14:37:48;22.10;99.90
20803;DHT22;10562;-33.856;151.182;2024-01-07T14:40:20;22.10;99.90
20803;DHT22;10562;-33.856;151.182;2024-01-07T14:42:51;22.00;99.90
20803;DHT22;10562;-33.856;151.182;2024-01-07T14:45:25;22.00;99.90
20803;DHT22;10562;-33.856;151.182;2024-01-07T14:47:56;22.00;99.90
20803;DHT22;10562;-33.856;151.182;2024-01-07T14:50:29;22.00;99.90
20803;DHT22;10562;-33.856;151.182;2024-01-07T14:53:00;22.00;99.90
20803;DHT22;10562;-33.856;151.182;2024-01-07T14:55:30;21.90;99.90
20803;DHT22;10562;-33.856;151.182;2024-01-07T14:58:01;21.90;99.90
20803;DHT22;10562;-33.856;151.182;2024-01-07T15:00:32;21.90;99.90
20803;DHT22;10562;-33.856;151.182;2024-01-07T15:03:03;21.90;99.90
20803;DHT22;10562;-33.856;151.182;2024-01-07T15:05:36;22.00;99.90
20803;DHT22;10562;-33.856;151.182;2024-01-07T15:08:08;22.00;99.90
20803;DHT22;10562;-33.856;151.182;2024-01-07T15:10:40;22.00;99.90
20803;DHT22;10562;-33.856;151.182;2024-01-07T15:13:11;21.90;99.90
20803;DHT22;10562;-33.856;151.182;2024-01-07T15:15:42;22.00;99.90
20803;DHT22;10562;-33.856;151.182;2024-01-07T15:18:13;21.90;99.90
20803;DHT22;10562;-33.856;151.182;2024-01-07T15:20:46;21.90;99.90